Time;durP1;ratioP1;P1;durP2;ratioP2;P2;SDS_P1;SDS_P2;PMS_P1;PMS_P2;Temp;Humidity;BMP_temperature;BMP_pressure;BME280_temperature;BME280_humidity;BME280_pressure;Samples;Min_cycle;Max_cycle;Signal;HPM_P1;HPM_P2
2022/11/12 00:02:18;;;;;;;54.00;29.30;;;;;;;;;;5068296;28;20076;-62
2022/11/12 00:04:44;;;;;;;51.10;29.30;;;;;;;;;;5052074;28;20051;-63
2022/11/12 00:07:10;;;;;;;55.37;27.87;;;;;;;;;;5049276;28;20041;-62
2022/11/12 00:09:36;;;;;;;55.10;29.40;;;;;;;;;;5049780;28;20556;-63
2022/11/12 00:12:02;;;;;;;61.77;32.30;;;;;;;;;;5049233;28;20060;-63
2022/11/12 00:14:28;;;;;;;54.30;28.67;;;;;;;;;;5049214;28;20099;-62
2022/11/12 00:16:54;;;;;;;56.37;30.00;;;;;;;;;;5049496;28;20045;-62
2022/11/12 00:19:20;;;;;;;65.13;32.13;;;;;;;;;;5053733;28;20052;-63
2022/11/12 00:21:46;;;;;;;67.67;32.07;;;;;;;;;;5059048;28;20052;-62
2022/11/12 00:24:12;;;;;;;59.40;31.30;;;;;;;;;;5069282;28;20392;-63
2022/11/12 00:26:38;;;;;;;67.13;34.30;;;;;;;;;;5069148;28;20049;-62
2022/11/12 00:29:04;;;;;;;65.20;30.10;;;;;;;;;;5068912;28;20081;-63
2022/11/12 00:31:30;;;;;;;58.63;31.30;;;;;;;;;;5069025;28;20044;-63
2022/11/12 00:33:56;;;;;;;60.47;30.93;;;;;;;;;;5083891;28;20051;-63
2022/11/12 00:36:22;;;;;;;58.70;30.93;;;;;;;;;;5088810;28;20040;-63
2022/11/12 00:38:48;;;;;;;64.80;31.93;;;;;;;;;;5089089;28;20391;-62
2022/11/12 00:41:14;;;;;;;62.40;30.40;;;;;;;;;;5089524;28;20101;-62
2022/11/12 00:43:40;;;;;;;63.40;31.20;;;;;;;;;;5075458;28;20078;-63
2022/11/12 00:46:06;;;;;;;64.83;31.83;;;;;;;;;;5068686;28;20221;-62
2022/11/12 00:48:33;;;;;;;58.73;29.77;;;;;;;;;;5068713;28;20407;-62
2022/11/12 00:51:02;;;;;;;74.27;33.30;;;;;;;;;;5068833;28;20520;-63
2022/11/12 00:53:29;;;;;;;53.40;27.40;;;;;;;;;;5068594;28;20436;-62
2022/11/12 00:55:59;;;;;;;55.17;31.53;;;;;;;;;;5068304;28;20426;-62
2022/11/12 00:58:27;;;;;;;57.17;30.57;;;;;;;;;;5068391;28;20063;-63
2022/11/12 01:00:53;;;;;;;59.63;29.60;;;;;;;;;;5068524;28;20040;-62
2022/11/12 01:03:19;;;;;;;62.80;31.10;;;;;;;;;;5057167;28;20114;-63
2022/11/12 01:05:45;;;;;;;54.97;28.13;;;;;;;;;;5048263;28;20106;-63
2022/11/12 01:08:11;;;;;;;56.60;29.43;;;;;;;;;;5056694;28;20059;-62
2022/11/12 01:10:37;;;;;;;67.00;33.10;;;;;;;;;;5064764;28;20048;-63
2022/11/12 01:13:03;;;;;;;75.93;35.57;;;;;;;;;;5048264;28;20148;-63
2022/11/12 01:15:29;;;;;;;58.50;31.10;;;;;;;;;;5054115;28;20505;-63
2022/11/12 01:17:55;;;;;;;58.67;31.83;;;;;;;;;;5066395;28;20083;-62
2022/11/12 01:20:22;;;;;;;65.50;33.33;;;;;;;;;;5068447;28;20067;-63
2022/11/12 01:22:48;;;;;;;62.70;32.37;;;;;;;;;;5068632;28;20519;-63
2022/11/12 01:25:14;;;;;;;54.03;30.33;;;;;;;;;;5068614;28;20040;-63
2022/11/12 01:27:40;;;;;;;59.23;34.43;;;;;;;;;;5068444;28;20040;-63
2022/11/12 01:30:06;;;;;;;69.30;35.90;;;;;;;;;;5068186;28;20094;-62
2022/11/12 01:32:36;;;;;;;72.30;36.60;;;;;;;;;;5067717;28;20052;-63
2022/11/12 01:35:02;;;;;;;72.23;36.57;;;;;;;;;;5068618;28;20049;-63
2022/11/12 01:37:28;;;;;;;67.07;37.37;;;;;;;;;;5068895;28;20044;-62
2022/11/12 01:39:54;;;;;;;70.87;36.60;;;;;;;;;;5068007;28;20422;-63
2022/11/12 01:42:23;;;;;;;67.00;37.13;;;;;;;;;;5068804;28;20048;-63
2022/11/12 01:44:52;;;;;;;90.23;39.13;;;;;;;;;;5062758;28;20144;-63
2022/11/12 01:47:27;;;;;;;74.60;38.67;;;;;;;;;;5048479;28;20178;-62
2022/11/12 01:49:58;;;;;;;78.93;38.23;;;;;;;;;;5047837;28;20048;-63
2022/11/12 01:52:32;;;;;;;99.67;42.70;;;;;;;;;;5047885;28;20049;-62
2022/11/12 01:55:01;;;;;;;82.00;39.57;;;;;;;;;;5047769;28;20051;-62
2022/11/12 01:57:29;;;;;;;92.83;40.90;;;;;;;;;;5064767;28;20045;-63
2022/11/12 01:59:58;;;;;;;85.10;39.00;;;;;;;;;;5058266;28;20051;-63
2022/11/12 02:02:24;;;;;;;87.27;41.97;;;;;;;;;;5068434;28;20052;-64
2022/11/12 02:04:50;;;;;;;93.37;41.63;;;;;;;;;;5067609;28;20040;-63
2022/11/12 02:07:17;;;;;;;75.40;37.53;;;;;;;;;;5068020;28;20079;-63
2022/11/12 02:09:43;;;;;;;89.53;40.40;;;;;;;;;;5068716;28;20040;-63
2022/11/12 02:13:56;;;;;;;65.07;33.90;;;;;;;;;;5068818;28;20048;-63
2022/11/12 02:14:55;;;;;;;66.07;34.80;;;;;;;;;;5068395;28;20141;-63
2022/11/12 02:17:21;;;;;;;105.37;45.97;;;;;;;;;;5068442;28;20052;-64
2022/11/12 02:19:47;;;;;;;85.33;38.60;;;;;;;;;;5068380;28;20143;-63
2022/11/12 02:22:13;;;;;;;93.30;41.10;;;;;;;;;;5068340;28;20045;-63
2022/11/12 02:24:39;;;;;;;89.60;41.80;;;;;;;;;;5068478;28;20048;-63
2022/11/12 02:27:05;;;;;;;76.97;37.50;;;;;;;;;;5069108;28;20040;-63
2022/11/12 02:29:32;;;;;;;78.87;36.53;;;;;;;;;;5067724;28;20044;-63
2022/11/12 02:31:58;;;;;;;94.40;41.30;;;;;;;;;;5052835;28;20079;-63
2022/11/12 02:34:24;;;;;;;79.77;38.13;;;;;;;;;;5048720;28;20081;-63
2022/11/12 02:36:50;;;;;;;93.10;40.70;;;;;;;;;;5048459;28;20045;-63
2022/11/12 02:39:16;;;;;;;80.57;38.67;;;;;;;;;;5048154;28;20051;-63
2022/11/12 02:41:42;;;;;;;98.03;41.23;;;;;;;;;;5050627;28;20048;-63
2022/11/12 02:44:08;;;;;;;87.77;40.57;;;;;;;;;;5067293;28;20122;-63
2022/11/12 02:46:34;;;;;;;99.97;41.73;;;;;;;;;;5068333;28;20506;-63
2022/11/12 02:49:00;;;;;;;119.43;45.50;;;;;;;;;;5068229;28;20059;-63
2022/11/12 02:51:26;;;;;;;98.00;39.80;;;;;;;;;;5067180;28;20061;-63
2022/11/12 02:53:52;;;;;;;89.07;39.67;;;;;;;;;;5067055;28;20094;-63
2022/11/12 02:56:18;;;;;;;100.53;39.70;;;;;;;;;;5053390;28;20052;-63
2022/11/12 02:58:44;;;;;;;75.50;34.53;;;;;;;;;;5066866;28;20052;-63
2022/11/12 03:01:10;;;;;;;89.80;40.83;;;;;;;;;;5071443;28;20052;-64
2022/11/12 03:03:36;;;;;;;93.93;40.67;;;;;;;;;;5071522;28;20052;-63
2022/11/12 03:06:03;;;;;;;87.20;40.63;;;;;;;;;;5071159;28;20045;-63
2022/11/12 03:08:29;;;;;;;83.17;39.07;;;;;;;;;;5070068;28;20487;-63
2022/11/12 03:10:55;;;;;;;85.77;38.27;;;;;;;;;;5054947;28;20526;-63
2022/11/12 03:13:21;;;;;;;81.60;37.37;;;;;;;;;;5050086;28;20060;-63
2022/11/12 03:15:47;;;;;;;96.30;40.07;;;;;;;;;;5051191;28;20049;-63
2022/11/12 03:18:13;;;;;;;85.87;37.33;;;;;;;;;;5051854;28;20048;-63
2022/11/12 03:20:40;;;;;;;110.90;42.93;;;;;;;;;;5051523;28;20079;-63
2022/11/12 03:23:08;;;;;;;78.97;35.97;;;;;;;;;;5054991;28;20044;-63
2022/11/12 03:25:34;;;;;;;78.30;35.17;;;;;;;;;;5070041;28;20052;-63
2022/11/12 03:28:02;;;;;;;97.57;40.10;;;;;;;;;;5051340;28;20051;-63
2022/11/12 03:30:29;;;;;;;82.50;37.60;;;;;;;;;;5051018;28;20045;-63
2022/11/12 03:32:55;;;;;;;96.33;40.40;;;;;;;;;;5051614;28;20045;-63
2022/11/12 03:35:22;;;;;;;96.93;41.63;;;;;;;;;;5051238;28;20060;-64
2022/11/12 03:37:48;;;;;;;98.13;41.03;;;;;;;;;;5050828;28;20130;-63
2022/11/12 03:40:15;;;;;;;103.13;43.40;;;;;;;;;;5068272;28;20052;-63
2022/11/12 03:42:44;;;;;;;83.47;38.30;;;;;;;;;;5070811;28;20052;-63
2022/11/12 03:45:10;;;;;;;104.87;46.70;;;;;;;;;;5070797;28;20048;-64
2022/11/12 03:47:39;;;;;;;104.77;46.00;;;;;;;;;;5070918;28;20052;-63
2022/11/12 03:50:06;;;;;;;106.27;44.27;;;;;;;;;;5070818;28;20036;-63
2022/11/12 03:52:32;;;;;;;88.40;41.73;;;;;;;;;;5070502;28;20430;-63
2022/11/12 03:54:58;;;;;;;134.63;48.43;;;;;;;;;;5056064;28;20053;-63
2022/11/12 03:57:24;;;;;;;100.63;41.17;;;;;;;;;;5050601;28;20110;-64
2022/11/12 03:59:50;;;;;;;99.37;41.63;;;;;;;;;;5064903;28;20044;-64
2022/11/12 04:02:16;;;;;;;98.47;43.43;;;;;;;;;;5070805;28;20048;-63
2022/11/12 04:10:11;;;;;;;199.93;47.23;;;;;;;;;;5050289;28;20041;-64
2022/11/12 04:15:22;;;;;;;69.47;31.80;;;;;;;;;;5050370;28;20397;-64
2022/11/12 04:23:18;;;;;;;98.10;39.33;;;;;;;;;;5057179;28;20044;-63
2022/11/12 04:28:30;;;;;;;94.17;36.77;;;;;;;;;;5065690;28;20049;-63
2022/11/12 04:30:56;;;;;;;78.87;34.93;;;;;;;;;;5049698;28;20102;-63
2022/11/12 04:33:22;;;;;;;83.13;35.20;;;;;;;;;;5050171;28;20287;-64
2022/11/12 04:35:48;;;;;;;88.43;37.03;;;;;;;;;;5049654;28;20061;-64
2022/11/12 04:38:14;;;;;;;84.87;37.10;;;;;;;;;;5057581;28;20089;-63
2022/11/12 04:46:09;;;;;;;128.40;44.03;;;;;;;;;;5069349;28;20044;-64
2022/11/12 04:48:35;;;;;;;183.83;53.67;;;;;;;;;;5069700;28;20051;-63
2022/11/12 04:51:02;;;;;;;250.80;60.13;;;;;;;;;;5066541;28;20044;-64
2022/11/12 04:53:29;;;;;;;193.67;53.60;;;;;;;;;;5054503;28;20052;-63
2022/11/12 04:55:57;;;;;;;280.03;64.40;;;;;;;;;;5069748;28;20113;-64
2022/11/12 04:58:23;;;;;;;262.27;62.63;;;;;;;;;;5067935;28;20049;-64
2022/11/12 05:00:50;;;;;;;282.97;63.73;;;;;;;;;;5069088;28;20547;-63
2022/11/12 05:03:16;;;;;;;254.17;59.77;;;;;;;;;;5069557;28;20052;-63
2022/11/12 05:05:42;;;;;;;313.87;68.67;;;;;;;;;;5069234;28;20080;-63
2022/11/12 05:08:08;;;;;;;292.77;66.63;;;;;;;;;;5068874;28;20056;-64
2022/11/12 05:10:34;;;;;;;339.37;73.30;;;;;;;;;;5069387;28;20056;-64
2022/11/12 05:13:00;;;;;;;264.80;62.33;;;;;;;;;;5068900;28;20056;-64
2022/11/12 05:15:26;;;;;;;176.07;47.50;;;;;;;;;;5069253;28;20102;-64
2022/11/12 05:17:53;;;;;;;153.57;44.07;;;;;;;;;;5068914;28;20808;-64
2022/11/12 05:20:19;;;;;;;214.30;56.57;;;;;;;;;;5069212;28;20058;-64
2022/11/12 05:22:45;;;;;;;177.43;50.67;;;;;;;;;;5063875;28;20048;-63
2022/11/12 05:25:11;;;;;;;197.47;50.73;;;;;;;;;;5049096;28;20045;-63
2022/11/12 05:27:37;;;;;;;84.63;33.83;;;;;;;;;;5068493;28;20041;-63
2022/11/12 05:30:03;;;;;;;134.80;41.73;;;;;;;;;;5066051;28;20045;-63
2022/11/12 05:32:29;;;;;;;124.07;43.17;;;;;;;;;;5060777;28;20083;-63
2022/11/12 05:34:55;;;;;;;158.87;47.70;;;;;;;;;;5058008;28;20507;-64
2022/11/12 05:37:21;;;;;;;321.53;67.20;;;;;;;;;;5067238;28;20290;-64
2022/11/12 05:39:47;;;;;;;301.03;57.27;;;;;;;;;;5068831;28;20040;-63
2022/11/12 05:42:13;;;;;;;60.10;28.57;;;;;;;;;;5068413;28;20055;-64
2022/11/12 05:44:39;;;;;;;65.33;29.20;;;;;;;;;;5068717;28;20048;-63
2022/11/12 05:47:05;;;;;;;92.80;33.43;;;;;;;;;;5080674;28;20051;-63
2022/11/12 05:49:32;;;;;;;70.40;28.63;;;;;;;;;;5088840;28;20048;-63
2022/11/12 05:51:58;;;;;;;51.87;26.10;;;;;;;;;;5088339;28;20528;-63
2022/11/12 05:54:24;;;;;;;56.93;27.00;;;;;;;;;;5088717;28;20506;-63
2022/11/12 05:56:51;;;;;;;88.10;33.23;;;;;;;;;;5088896;28;20040;-63
2022/11/12 05:59:18;;;;;;;58.20;25.93;;;;;;;;;;5069890;28;20044;-63
2022/11/12 06:01:44;;;;;;;65.67;29.60;;;;;;;;;;5048885;28;20048;-63
2022/11/12 06:04:11;;;;;;;88.57;35.50;;;;;;;;;;5048688;28;20098;-64
2022/11/12 06:06:37;;;;;;;66.20;30.60;;;;;;;;;;5062338;28;20293;-64
2022/11/12 06:09:04;;;;;;;104.27;37.37;;;;;;;;;;5068273;28;20403;-63
2022/11/12 06:11:30;;;;;;;95.93;37.37;;;;;;;;;;5068800;28;20083;-63
2022/11/12 06:13:56;;;;;;;132.60;45.37;;;;;;;;;;5067021;28;20055;-63
2022/11/12 06:16:22;;;;;;;213.57;55.13;;;;;;;;;;5067451;28;20095;-63
2022/11/12 06:18:48;;;;;;;125.07;43.83;;;;;;;;;;5068700;28;20226;-63
2022/11/12 06:21:23;;;;;;;113.40;41.47;;;;;;;;;;5063478;28;20071;-63
2022/11/12 06:23:56;;;;;;;72.47;30.93;;;;;;;;;;5058359;28;20124;-63
2022/11/12 06:26:23;;;;;;;67.25;26.75;;;;;;;;;;5057441;28;20423;-63
2022/11/12 06:28:50;;;;;;;58.13;24.13;;;;;;;;;;5055107;28;20044;-64
2022/11/12 06:31:16;;;;;;;80.87;28.87;;;;;;;;;;5057961;28;20052;-64
2022/11/12 06:33:43;;;;;;;74.03;27.40;;;;;;;;;;5063856;28;20044;-64
2022/11/12 06:36:10;;;;;;;76.80;25.73;;;;;;;;;;5070343;28;20853;-64
2022/11/12 06:38:37;;;;;;;555.90;82.77;;;;;;;;;;5072250;28;20040;-64
2022/11/12 06:41:04;;;;;;;122.73;38.13;;;;;;;;;;5071586;28;20036;-64
2022/11/12 06:43:30;;;;;;;139.20;32.57;;;;;;;;;;5071319;28;20466;-64
2022/11/12 06:46:00;;;;;;;67.90;27.50;;;;;;;;;;5078637;28;20294;-64
2022/11/12 06:48:27;;;;;;;55.60;24.63;;;;;;;;;;5071662;28;20095;-63
2022/11/12 06:50:53;;;;;;;73.00;29.23;;;;;;;;;;5068535;28;20291;-64
2022/11/12 06:53:19;;;;;;;76.70;30.30;;;;;;;;;;5070955;28;20039;-64
2022/11/12 06:55:45;;;;;;;110.53;38.17;;;;;;;;;;5070703;28;20032;-64
2022/11/12 06:58:11;;;;;;;298.37;60.40;;;;;;;;;;5071036;28;20409;-64
2022/11/12 07:00:37;;;;;;;167.27;42.50;;;;;;;;;;5070063;28;20111;-64
2022/11/12 07:03:09;;;;;;;172.87;46.53;;;;;;;;;;5071390;28;20044;-64
2022/11/12 07:05:37;;;;;;;112.07;35.37;;;;;;;;;;5071182;28;20325;-64
2022/11/12 07:08:03;;;;;;;182.23;47.67;;;;;;;;;;5071310;28;20338;-64
2022/11/12 07:10:30;;;;;;;533.80;88.13;;;;;;;;;;5069525;28;20412;-64
2022/11/12 07:12:56;;;;;;;124.43;35.00;;;;;;;;;;5069439;28;20061;-64
2022/11/12 07:15:22;;;;;;;79.17;24.13;;;;;;;;;;5071037;28;20672;-64
2022/11/12 07:17:48;;;;;;;260.40;34.93;;;;;;;;;;5070430;28;20282;-64
2022/11/12 07:20:14;;;;;;;199.40;28.53;;;;;;;;;;5067334;28;20048;-64
2022/11/12 07:22:40;;;;;;;132.67;22.40;;;;;;;;;;5069128;28;20309;-64
2022/11/12 07:25:06;;;;;;;82.17;20.47;;;;;;;;;;5070812;28;20456;-64
2022/11/12 07:27:32;;;;;;;86.20;18.60;;;;;;;;;;5068226;28;20285;-64
2022/11/12 07:29:58;;;;;;;90.70;19.80;;;;;;;;;;5069849;28;20036;-64
2022/11/12 07:32:24;;;;;;;155.63;35.50;;;;;;;;;;5068023;28;20352;-64
2022/11/12 07:34:51;;;;;;;314.87;47.63;;;;;;;;;;5069081;28;20094;-64
2022/11/12 07:37:17;;;;;;;149.67;36.53;;;;;;;;;;5070235;28;20127;-64
2022/11/12 07:39:43;;;;;;;98.37;33.47;;;;;;;;;;5069125;28;20482;-64
2022/11/12 07:42:09;;;;;;;90.67;29.93;;;;;;;;;;5068903;28;20510;-64
2022/11/12 07:44:35;;;;;;;73.93;30.90;;;;;;;;;;5070023;28;20072;-63
2022/11/12 07:47:01;;;;;;;61.97;27.33;;;;;;;;;;5069983;28;20056;-63
2022/11/12 07:49:27;;;;;;;74.67;30.97;;;;;;;;;;5069158;28;20384;-63
2022/11/12 07:51:53;;;;;;;60.13;28.93;;;;;;;;;;5068248;28;20048;-63
2022/11/12 07:54:19;;;;;;;58.97;27.57;;;;;;;;;;5052011;28;20430;-63
2022/11/12 07:56:45;;;;;;;53.77;25.43;;;;;;;;;;5050385;28;20064;-63
2022/11/12 07:59:11;;;;;;;45.73;23.63;;;;;;;;;;5050770;28;20150;-63
2022/11/12 08:01:38;;;;;;;75.30;30.37;;;;;;;;;;5050530;28;20079;-63
2022/11/12 08:04:06;;;;;;;54.67;26.63;;;;;;;;;;5050483;28;20045;-63
2022/11/12 08:06:33;;;;;;;56.17;27.23;;;;;;;;;;5050934;28;20045;-63
2022/11/12 08:09:00;;;;;;;50.37;25.93;;;;;;;;;;5051721;28;21309;-63
2022/11/12 08:11:26;;;;;;;60.47;29.13;;;;;;;;;;5054356;28;20086;-63
2022/11/12 08:13:52;;;;;;;58.33;29.07;;;;;;;;;;5068667;28;20056;-63
2022/11/12 08:16:19;;;;;;;45.97;25.70;;;;;;;;;;5063099;28;20033;-63
2022/11/12 08:18:45;;;;;;;42.80;25.90;;;;;;;;;;5050162;28;20415;-63
2022/11/12 08:21:13;;;;;;;42.97;26.40;;;;;;;;;;5067417;28;20047;-63
2022/11/12 08:23:39;;;;;;;58.77;31.67;;;;;;;;;;5070488;28;20475;-63
2022/11/12 08:26:07;;;;;;;52.17;29.10;;;;;;;;;;5059412;28;20037;-63
2022/11/12 08:28:34;;;;;;;38.53;23.23;;;;;;;;;;5065484;28;20169;-64
2022/11/12 08:31:04;;;;;;;39.47;23.73;;;;;;;;;;5065985;28;20206;-63
2022/11/12 08:33:30;;;;;;;44.67;26.80;;;;;;;;;;5069537;28;20048;-64
2022/11/12 08:35:57;;;;;;;34.57;22.03;;;;;;;;;;5061064;28;20111;-64
2022/11/12 08:38:23;;;;;;;38.80;23.87;;;;;;;;;;5060402;28;20126;-64
2022/11/12 08:40:49;;;;;;;34.50;23.57;;;;;;;;;;5056759;28;20167;-63
2022/11/12 08:43:15;;;;;;;41.33;24.60;;;;;;;;;;5063034;28;20482;-63
2022/11/12 08:45:41;;;;;;;34.73;22.13;;;;;;;;;;5067458;28;20048;-63
2022/11/12 08:48:09;;;;;;;32.60;21.80;;;;;;;;;;5067539;28;20075;-64
2022/11/12 08:50:36;;;;;;;34.93;21.80;;;;;;;;;;5075891;28;20502;-64
2022/11/12 08:53:12;;;;;;;35.60;22.10;;;;;;;;;;5067897;28;20048;-64
2022/11/12 08:55:38;;;;;;;47.57;29.27;;;;;;;;;;5065924;28;20411;-62
2022/11/12 08:58:04;;;;;;;44.00;25.83;;;;;;;;;;5066779;28;20482;-62
2022/11/12 09:00:34;;;;;;;42.60;24.37;;;;;;;;;;5067174;28;20052;-62
2022/11/12 09:03:00;;;;;;;35.60;22.60;;;;;;;;;;5066724;28;20142;-62
2022/11/12 09:05:27;;;;;;;34.10;22.17;;;;;;;;;;5066664;28;20430;-63
2022/11/12 09:07:57;;;;;;;35.23;23.63;;;;;;;;;;5057423;28;20040;-63
2022/11/12 09:10:23;;;;;;;38.70;25.93;;;;;;;;;;5066837;28;20098;-63
2022/11/12 09:12:52;;;;;;;30.40;21.67;;;;;;;;;;5067511;28;20473;-63
2022/11/12 09:15:19;;;;;;;35.67;22.27;;;;;;;;;;5058732;28;20052;-63
2022/11/12 09:17:45;;;;;;;30.47;20.40;;;;;;;;;;5056936;28;20041;-63
2022/11/12 09:20:11;;;;;;;41.70;25.70;;;;;;;;;;5057382;28;20040;-63
2022/11/12 09:22:37;;;;;;;40.73;24.60;;;;;;;;;;5060398;28;20450;-64
2022/11/12 09:25:03;;;;;;;34.60;22.40;;;;;;;;;;5060915;28;20495;-63
2022/11/12 09:27:29;;;;;;;41.03;27.57;;;;;;;;;;5047817;28;20129;-63
2022/11/12 09:29:55;;;;;;;58.43;37.13;;;;;;;;;;5055235;28;20208;-64
2022/11/12 09:32:22;;;;;;;40.87;29.97;;;;;;;;;;5065637;28;20055;-64
2022/11/12 09:34:47;;;;;;;43.23;29.97;;;;;;;;;;5066941;28;20053;-63
2022/11/12 09:37:14;;;;;;;48.93;32.53;;;;;;;;;;5066284;28;20067;-63
2022/11/12 09:39:40;;;;;;;43.33;30.73;;;;;;;;;;5066941;28;20056;-64
2022/11/12 09:42:12;;;;;;;38.20;27.77;;;;;;;;;;5067542;28;20040;-63
2022/11/12 09:44:40;;;;;;;36.00;23.23;;;;;;;;;;5064418;28;20062;-63
2022/11/12 09:47:09;;;;;;;27.37;17.50;;;;;;;;;;5066617;28;20048;-63
2022/11/12 09:49:57;;;;;;;23.90;15.83;;;;;;;;;;5067125;28;20048;-64
2022/11/12 09:52:24;;;;;;;23.77;14.50;;;;;;;;;;5056874;28;20097;-64
2022/11/12 09:54:54;;;;;;;18.90;14.03;;;;;;;;;;5048466;28;20568;-64
2022/11/12 09:57:20;;;;;;;20.87;14.07;;;;;;;;;;5066191;28;20077;-64
2022/11/12 09:59:47;;;;;;;15.57;11.33;;;;;;;;;;5059883;28;20283;-64
2022/11/12 10:02:25;;;;;;;13.80;10.60;;;;;;;;;;5064410;28;20041;-63
2022/11/12 10:04:58;;;;;;;12.30;9.90;;;;;;;;;;5064939;28;20036;-64
2022/11/12 10:07:27;;;;;;;11.93;9.32;;;;;;;;;;5055193;28;20041;-63
2022/11/12 10:09:59;;;;;;;18.57;10.07;;;;;;;;;;5052833;28;20051;-63
2022/11/12 10:12:30;;;;;;;12.70;9.23;;;;;;;;;;5060920;28;20050;-63
2022/11/12 10:16:41;;;;;;;15.50;9.47;;;;;;;;;;5060025;28;20110;-63
2022/11/12 10:17:50;;;;;;;15.77;9.80;;;;;;;;;;5068182;28;20049;-63
2022/11/12 10:20:22;;;;;;;9.83;8.13;;;;;;;;;;5067540;28;20067;-63
2022/11/12 10:23:07;;;;;;;12.70;9.33;;;;;;;;;;5068790;28;20482;-63
2022/11/12 10:25:34;;;;;;;12.83;7.93;;;;;;;;;;5068805;28;20094;-63
2022/11/12 10:28:01;;;;;;;14.20;7.80;;;;;;;;;;5070773;28;20550;-63
2022/11/12 10:30:27;;;;;;;12.17;7.60;;;;;;;;;;5061718;28;20589;-63
2022/11/12 10:32:53;;;;;;;10.57;7.23;;;;;;;;;;5070769;28;20127;-63
2022/11/12 10:35:21;;;;;;;12.17;7.03;;;;;;;;;;5068015;28;20107;-63
2022/11/12 10:37:50;;;;;;;9.50;7.00;;;;;;;;;;5063265;28;20491;-64
2022/11/12 10:40:28;;;;;;;11.67;6.53;;;;;;;;;;5071867;28;20063;-63
2022/11/12 10:42:56;;;;;;;10.30;6.77;;;;;;;;;;5061892;28;20554;-63
2022/11/12 10:45:22;;;;;;;8.57;6.10;;;;;;;;;;5050917;28;20138;-63
2022/11/12 10:47:49;;;;;;;10.63;6.90;;;;;;;;;;5050966;28;20057;-63
2022/11/12 10:50:22;;;;;;;9.00;6.63;;;;;;;;;;5068891;28;20040;-63
2022/11/12 10:52:48;;;;;;;;;;;;;;;;;;5066286;28;20049;-63
2022/11/12 10:55:19;;;;;;;10.63;6.33;;;;;;;;;;5062738;28;19929;-63
2022/11/12 10:57:45;;;;;;;9.67;6.40;;;;;;;;;;5071754;28;20044;-63
2022/11/12 11:00:15;;;;;;;10.37;6.63;;;;;;;;;;5059407;28;20385;-63
2022/11/12 11:02:49;;;;;;;12.50;6.40;;;;;;;;;;5060198;28;20044;-63
2022/11/12 11:05:33;;;;;;;8.73;5.77;;;;;;;;;;5069257;28;20518;-63
2022/11/12 11:08:00;;;;;;;10.53;6.10;;;;;;;;;;5066046;28;20123;-63
2022/11/12 11:10:31;;;;;;;10.10;6.90;;;;;;;;;;5065563;28;20388;-63
2022/11/12 11:13:19;;;;;;;11.10;5.77;;;;;;;;;;5050937;28;20111;-63
2022/11/12 11:16:01;;;;;;;9.97;5.47;;;;;;;;;;5050184;28;20064;-63
2022/11/12 11:18:28;;;;;;;10.37;6.13;;;;;;;;;;5049853;28;20048;-63
2022/11/12 11:21:12;;;;;;;10.00;5.90;;;;;;;;;;5069584;28;20321;-62
2022/11/12 11:23:57;;;;;;;7.97;5.77;;;;;;;;;;5064855;28;20144;-62
2022/11/12 11:26:36;;;;;;;7.43;5.73;;;;;;;;;;5050513;28;20415;-62
2022/11/12 11:29:18;;;;;;;8.57;5.77;;;;;;;;;;5057138;28;20403;-63
2022/11/12 11:31:50;;;;;;;8.20;6.20;;;;;;;;;;5052657;28;20099;-63
2022/11/12 11:34:32;;;;;;;11.07;6.50;;;;;;;;;;5057231;28;20478;-63
2022/11/12 11:37:04;;;;;;;16.40;6.30;;;;;;;;;;5058788;28;20494;-63
2022/11/12 11:39:30;;;;;;;10.97;5.87;;;;;;;;;;5061030;28;20305;-62
2022/11/12 11:42:07;;;;;;;9.67;6.33;;;;;;;;;;5068906;28;20060;-63
2022/11/12 11:44:57;;;;;;;8.57;5.97;;;;;;;;;;5069267;28;20052;-62
2022/11/12 11:47:44;;;;;;;9.43;6.10;;;;;;;;;;5070638;28;20059;-62
2022/11/12 11:50:16;;;;;;;8.43;5.53;;;;;;;;;;5063682;28;20041;-62
2022/11/12 11:53:00;;;;;;;9.63;5.77;;;;;;;;;;5057745;28;20406;-62
2022/11/12 11:55:26;;;;;;;9.20;5.80;;;;;;;;;;5049543;28;20184;-62
2022/11/12 11:57:52;;;;;;;7.17;5.73;;;;;;;;;;5048463;28;20064;-62
2022/11/12 12:00:20;;;;;;;8.80;5.90;;;;;;;;;;5052082;28;20115;-62
2022/11/12 12:02:46;;;;;;;9.17;6.10;;;;;;;;;;5066438;28;20114;-62
2022/11/12 12:05:21;;;;;;;8.07;5.53;;;;;;;;;;5068445;28;20116;-62
2022/11/12 12:07:55;;;;;;;8.73;6.30;;;;;;;;;;5060058;28;20188;-63
2022/11/12 12:10:24;;;;;;;11.07;5.97;;;;;;;;;;5051111;28;20041;-62
2022/11/12 12:12:58;;;;;;;8.00;6.10;;;;;;;;;;5062461;28;20072;-62
2022/11/12 12:15:24;;;;;;;8.17;5.87;;;;;;;;;;5069283;28;20415;-62
2022/11/12 12:18:09;;;;;;;8.20;5.97;;;;;;;;;;5055806;28;20473;-62
2022/11/12 12:20:41;;;;;;;9.80;5.60;;;;;;;;;;5064960;28;20599;-63
2022/11/12 12:23:32;;;;;;;10.67;5.60;;;;;;;;;;5070384;28;20453;-63
2022/11/12 12:26:00;;;;;;;8.23;5.60;;;;;;;;;;5058726;28;20533;-62
2022/11/12 12:28:34;;;;;;;9.40;5.97;;;;;;;;;;5068795;28;20049;-62
2022/11/12 12:31:04;;;;;;;7.90;4.70;;;;;;;;;;5047666;28;20041;-63
2022/11/12 12:33:42;;;;;;;8.50;5.70;;;;;;;;;;5046068;28;20045;-63
2022/11/12 12:36:10;;;;;;;11.07;5.30;;;;;;;;;;5048144;28;20525;-63
2022/11/12 12:38:41;;;;;;;7.03;5.37;;;;;;;;;;5064295;28;20051;-63
2022/11/12 12:41:28;;;;;;;7.97;6.30;;;;;;;;;;5063025;28;20128;-63
2022/11/12 12:44:05;;;;;;;8.40;6.07;;;;;;;;;;5069275;28;20517;-61
2022/11/12 12:46:33;;;;;;;7.60;5.37;;;;;;;;;;5066659;28;20388;-61
2022/11/12 12:49:00;;;;;;;8.80;5.87;;;;;;;;;;5051441;28;20055;-61
2022/11/12 12:51:29;;;;;;;8.30;5.63;;;;;;;;;;5061763;28;20053;-61
2022/11/12 12:53:55;;;;;;;8.10;5.40;;;;;;;;;;5066970;28;20109;-61
2022/11/12 12:56:30;;;;;;;6.73;5.33;;;;;;;;;;5069368;28;20048;-61
2022/11/12 12:58:57;;;;;;;6.70;4.77;;;;;;;;;;5068563;28;20044;-61
2022/11/12 13:01:23;;;;;;;8.40;5.57;;;;;;;;;;5069226;28;20186;-61
2022/11/12 13:03:49;;;;;;;7.63;5.77;;;;;;;;;;5062573;28;20079;-61
2022/11/12 13:06:21;;;;;;;9.73;5.80;;;;;;;;;;5051082;28;20102;-61
2022/11/12 13:08:53;;;;;;;7.33;5.40;;;;;;;;;;5059677;28;20106;-61
2022/11/12 13:12:20;;;;;;;8.67;5.23;;;;;;;;;;5069446;28;20056;-61
2022/11/12 13:14:36;;;;;;;7.37;5.37;;;;;;;;;;5063974;28;20110;-61
2022/11/12 13:17:10;;;;;;;7.33;5.27;;;;;;;;;;5069426;28;20188;-61
2022/11/12 13:19:36;;;;;;;6.87;5.63;;;;;;;;;;5067198;28;20058;-61
2022/11/12 13:22:18;;;;;;;8.77;5.87;;;;;;;;;;5058276;28;20055;-61
2022/11/12 13:25:20;;;;;;;7.53;5.37;;;;;;;;;;5062638;28;20045;-61
2022/11/12 13:27:46;;;;;;;10.63;5.50;;;;;;;;;;5052971;28;20128;-61
2022/11/12 13:30:16;;;;;;;11.93;5.80;;;;;;;;;;5051643;28;20053;-61
2022/11/12 13:32:42;;;;;;;8.30;5.60;;;;;;;;;;5049441;28;20089;-61
2022/11/12 13:35:11;;;;;;;9.40;5.53;;;;;;;;;;5048978;28;20488;-61
2022/11/12 13:37:43;;;;;;;8.23;6.50;;;;;;;;;;5052335;28;20044;-61
2022/11/12 13:40:11;;;;;;;8.07;5.50;;;;;;;;;;5049685;28;20037;-61
2022/11/12 13:42:47;;;;;;;8.03;6.20;;;;;;;;;;5047932;28;20483;-61
2022/11/12 13:45:13;;;;;;;10.43;5.60;;;;;;;;;;5048485;28;20043;-61
2022/11/12 13:47:39;;;;;;;7.70;6.10;;;;;;;;;;5048761;28;20045;-61
2022/11/12 13:50:07;;;;;;;7.27;5.63;;;;;;;;;;5068565;28;20209;-61
2022/11/12 13:52:33;;;;;;;8.33;6.00;;;;;;;;;;5065327;28;20099;-61
2022/11/12 13:55:03;;;;;;;10.57;6.00;;;;;;;;;;5055932;28;20032;-61
2022/11/12 13:57:31;;;;;;;10.37;6.40;;;;;;;;;;5068910;28;20051;-61
2022/11/12 14:00:09;;;;;;;9.63;6.87;;;;;;;;;;5056676;28;20077;-61
2022/11/12 14:02:37;;;;;;;8.60;6.33;;;;;;;;;;5048250;28;20049;-61
2022/11/12 14:05:03;;;;;;;8.87;6.37;;;;;;;;;;5050178;28;20047;-61
2022/11/12 14:07:29;;;;;;;7.87;6.33;;;;;;;;;;5067643;28;20044;-61
2022/11/12 14:09:58;;;;;;;8.53;6.40;;;;;;;;;;5059531;28;20664;-61
2022/11/12 14:12:40;;;;;;;9.07;6.13;;;;;;;;;;5049285;28;20490;-61
2022/11/12 14:15:15;;;;;;;7.37;6.30;;;;;;;;;;5062595;28;20185;-61
2022/11/12 14:18:00;;;;;;;10.07;5.80;;;;;;;;;;5068303;28;20044;-61
2022/11/12 14:20:35;;;;;;;11.00;5.70;;;;;;;;;;5065935;28;20446;-61
2022/11/12 14:23:15;;;;;;;10.83;5.80;;;;;;;;;;5068458;28;20131;-61
2022/11/12 14:25:48;;;;;;;9.73;6.10;;;;;;;;;;5064355;28;20040;-61
2022/11/12 14:28:26;;;;;;;9.13;6.33;;;;;;;;;;5048493;28;20041;-61
2022/11/12 14:30:53;;;;;;;7.27;6.23;;;;;;;;;;5061317;28;20053;-61
2022/11/12 14:33:25;;;;;;;10.07;6.43;;;;;;;;;;5064472;28;20506;-61
2022/11/12 14:35:51;;;;;;;8.83;7.17;;;;;;;;;;5068050;28;20059;-61
2022/11/12 14:38:20;;;;;;;7.43;6.17;;;;;;;;;;5067634;28;20045;-61
2022/11/12 14:40:48;;;;;;;10.63;6.50;;;;;;;;;;5068948;28;20044;-61
2022/11/12 14:43:25;;;;;;;7.60;5.53;;;;;;;;;;5065588;28;20047;-61
2022/11/12 14:45:52;;;;;;;10.87;6.13;;;;;;;;;;5054335;28;20463;-61
2022/11/12 14:48:18;;;;;;;11.00;6.17;;;;;;;;;;5057627;28;20094;-62
2022/11/12 14:50:45;;;;;;;10.40;6.67;;;;;;;;;;5067570;28;20048;-62
2022/11/12 14:53:15;;;;;;;10.73;7.13;;;;;;;;;;5056851;28;20499;-61